createdAt,value
2023-04-06T00:01:45.531Z,37.80
2023-04-06T00:03:47.285Z,37.80
2023-04-06T00:05:49.761Z,37.80
2023-04-06T00:07:51.520Z,37.80
2023-04-06T00:09:53.157Z,38.50
2023-04-06T00:11:54.818Z,37.80
2023-04-06T00:13:56.442Z,37.80
2023-04-06T00:15:58.199Z,37.80
2023-04-06T00:18:00.184Z,37.90
2023-04-06T00:20:02.069Z,37.90
2023-04-06T00:22:03.871Z,37.90
2023-04-06T00:24:05.957Z,37.90
2023-04-06T00:26:07.796Z,37.90
2023-04-06T00:28:09.526Z,37.90
2023-04-06T00:30:11.589Z,37.90
2023-04-06T00:32:13.414Z,37.90
2023-04-06T00:34:16.861Z,37.90
2023-04-06T00:36:18.618Z,37.90
2023-04-06T00:38:20.447Z,37.90
2023-04-06T00:40:22.167Z,37.80
2023-04-06T00:42:27.142Z,37.90
2023-04-06T00:44:28.995Z,37.90
2023-04-06T00:46:30.787Z,37.90
2023-04-06T00:48:32.656Z,37.80
2023-04-06T00:50:34.841Z,37.80
2023-04-06T00:52:36.750Z,37.90
2023-04-06T00:54:38.512Z,37.80
2023-04-06T00:56:40.457Z,37.90
2023-04-06T00:58:42.153Z,37.90
2023-04-06T01:00:43.949Z,37.90
2023-04-06T01:02:49.171Z,37.90
2023-04-06T01:04:51.042Z,37.80
2023-04-06T01:06:52.804Z,37.80
2023-04-06T01:08:54.498Z,37.80
2023-04-06T01:10:56.481Z,37.90
2023-04-06T01:12:58.261Z,37.90
2023-04-06T01:15:00.967Z,37.80
2023-04-06T01:17:02.804Z,37.90
2023-04-06T01:19:14.102Z,37.90
2023-04-06T01:21:18.752Z,37.80
2023-04-06T01:23:20.587Z,37.90
2023-04-06T01:25:22.274Z,37.90
2023-04-06T01:27:23.998Z,37.80
2023-04-06T01:29:26.045Z,37.80
2023-04-06T01:31:28.135Z,37.80
2023-04-06T01:33:29.905Z,37.80
2023-04-06T01:35:31.853Z,37.80
2023-04-06T01:37:33.638Z,37.80
2023-04-06T01:39:35.365Z,37.80
2023-04-06T01:41:37.464Z,37.80
2023-04-06T01:43:39.237Z,37.80
2023-04-06T01:45:40.988Z,37.80
2023-04-06T01:47:42.961Z,37.80
2023-04-06T01:49:44.757Z,37.90
2023-04-06T01:51:46.406Z,37.80
2023-04-06T01:53:49.323Z,37.80
2023-04-06T01:55:51.386Z,37.80
2023-04-06T01:57:53.123Z,37.80
2023-04-06T01:59:54.824Z,37.80
2023-04-06T02:01:56.502Z,37.80
2023-04-06T02:03:58.206Z,37.90
2023-04-06T02:05:59.946Z,37.70
2023-04-06T02:08:01.589Z,37.90
2023-04-06T02:10:04.299Z,37.70
2023-04-06T02:12:06.346Z,37.80
2023-04-06T02:14:08.037Z,37.80
2023-04-06T02:16:09.769Z,37.80
2023-04-06T02:18:11.589Z,37.70
2023-04-06T02:20:13.543Z,37.80
2023-04-06T02:22:15.921Z,37.70
2023-04-06T02:24:17.688Z,37.80
2023-04-06T02:26:19.505Z,37.70
2023-04-06T02:28:21.152Z,37.70
2023-04-06T02:30:22.789Z,37.70
2023-04-06T02:32:24.744Z,37.70
2023-04-06T02:34:26.406Z,37.70
2023-04-06T02:36:28.066Z,37.70
2023-04-06T02:38:29.766Z,37.80
2023-04-06T02:40:31.440Z,37.80
2023-04-06T02:42:33.785Z,37.80
2023-04-06T02:44:35.827Z,37.80
2023-04-06T02:46:37.593Z,37.80
2023-04-06T02:48:39.346Z,38.40
2023-04-06T02:50:41.192Z,37.80
2023-04-06T02:52:42.918Z,37.80
2023-04-06T02:54:44.702Z,37.70
2023-04-06T02:56:46.370Z,37.70
2023-04-06T02:58:48.643Z,37.70
2023-04-06T03:00:50.450Z,37.70
2023-04-06T03:02:52.172Z,37.80
2023-04-06T03:04:53.865Z,37.70
2023-04-06T03:06:56.228Z,37.80
2023-04-06T03:08:57.992Z,37.80
2023-04-06T03:10:59.762Z,37.80
2023-04-06T03:13:01.406Z,37.80
2023-04-06T03:15:03.307Z,37.70
2023-04-06T03:17:05.321Z,37.80
2023-04-06T03:19:07.281Z,37.80
2023-04-06T03:21:09.106Z,37.80
2023-04-06T03:23:10.783Z,37.80
2023-04-06T03:25:12.484Z,38.50
2023-04-06T03:27:14.125Z,37.80
2023-04-06T03:29:15.819Z,37.80
2023-04-06T03:31:17.578Z,37.80
2023-04-06T03:33:19.225Z,37.80
2023-04-06T03:35:21.008Z,38.50
2023-04-06T03:37:22.744Z,37.70
2023-04-06T03:39:24.530Z,37.70
2023-04-06T03:41:26.211Z,37.60
2023-04-06T03:43:27.894Z,37.50
2023-04-06T03:45:29.598Z,37.40
2023-04-06T03:47:31.271Z,37.20
2023-04-06T03:49:33.081Z,37.10
2023-04-06T03:51:34.789Z,36.90
2023-04-06T03:53:38.109Z,36.80
2023-04-06T03:55:39.780Z,36.60
2023-04-06T03:57:41.543Z,36.50
2023-04-06T03:59:43.349Z,36.30
2023-04-06T04:01:45.226Z,36.30
2023-04-06T04:03:48.376Z,36.30
2023-04-06T04:05:51.958Z,36.20
2023-04-06T04:07:53.885Z,36.10
2023-04-06T04:09:55.743Z,36.20
2023-04-06T04:11:57.419Z,36.20
2023-04-06T04:13:59.085Z,36.20
2023-04-06T04:16:01.203Z,36.40
2023-04-06T04:18:03.123Z,36.60
2023-04-06T04:20:05.497Z,36.70
2023-04-06T04:22:07.549Z,36.80
2023-04-06T04:24:09.251Z,36.60
2023-04-06T04:26:11.228Z,36.80
2023-04-06T04:28:12.917Z,36.90
2023-04-06T04:30:14.632Z,37.00
2023-04-06T04:32:16.989Z,37.10
2023-04-06T04:34:21.577Z,37.10
2023-04-06T04:36:24.117Z,37.10
2023-04-06T04:38:25.921Z,37.40
2023-04-06T04:40:27.598Z,37.40
2023-04-06T04:42:29.363Z,37.40
2023-04-06T04:44:31.015Z,37.60
2023-04-06T04:46:32.690Z,37.80
2023-04-06T04:48:34.474Z,37.90
2023-04-06T04:50:36.206Z,37.90
2023-04-06T04:52:38.906Z,37.90
2023-04-06T04:54:41.988Z,37.90
2023-04-06T04:56:43.658Z,37.90
2023-04-06T04:58:45.328Z,37.90
2023-04-06T05:00:47.855Z,37.90
2023-04-06T05:02:49.678Z,37.90
2023-04-06T05:04:51.550Z,38.20
2023-04-06T05:07:07.474Z,38.00
2023-04-06T05:09:09.341Z,38.20
2023-04-06T05:11:11.374Z,38.00
2023-04-06T05:13:13.246Z,38.00
2023-04-06T05:15:15.054Z,37.80
2023-04-06T05:17:16.905Z,37.70
2023-04-06T05:19:18.779Z,37.60
2023-04-06T05:21:20.630Z,37.50
2023-04-06T05:23:22.293Z,37.40
2023-04-06T05:25:24.046Z,37.40
2023-04-06T05:27:26.030Z,37.30
2023-04-06T05:29:27.738Z,37.30
2023-04-06T05:31:30.514Z,37.60
2023-04-06T05:33:32.328Z,37.70
2023-04-06T05:35:34.104Z,37.20
2023-04-06T05:37:35.978Z,37.80
2023-04-06T05:39:37.635Z,37.30
2023-04-06T05:41:39.258Z,37.20
2023-04-06T05:43:40.896Z,37.20
2023-04-06T05:45:44.799Z,37.30
2023-04-06T05:47:46.855Z,37.40
2023-04-06T05:49:48.603Z,37.40
2023-04-06T05:51:50.398Z,37.40
2023-04-06T05:53:52.090Z,37.40
2023-04-06T05:55:53.788Z,37.40
2023-04-06T05:57:55.504Z,37.50
2023-04-06T05:59:57.281Z,37.60
2023-04-06T06:01:58.997Z,37.60
2023-04-06T06:04:02.997Z,37.50
2023-04-06T06:06:05.778Z,37.30
2023-04-06T06:08:07.985Z,37.40
2023-04-06T06:10:10.239Z,37.40
2023-04-06T06:12:14.011Z,37.30
2023-04-06T06:14:16.305Z,37.30
2023-04-06T06:16:19.205Z,37.30
2023-04-06T06:18:20.958Z,37.10
2023-04-06T06:20:22.809Z,37.00
2023-04-06T06:22:24.508Z,37.00
2023-04-06T06:24:26.434Z,37.00
2023-04-06T06:26:28.203Z,37.00
2023-04-06T06:28:29.907Z,36.90
2023-04-06T06:30:31.693Z,36.90
2023-04-06T06:32:33.500Z,36.90
2023-04-06T06:34:35.587Z,36.90
2023-04-06T06:36:37.356Z,36.80
2023-04-06T06:38:39.773Z,36.80
2023-04-06T06:40:42.160Z,36.80
2023-04-06T06:42:43.855Z,36.80
2023-04-06T06:44:45.908Z,36.70
2023-04-06T06:46:47.555Z,36.70
2023-04-06T06:48:49.279Z,36.70
2023-04-06T06:50:51.093Z,36.70
2023-04-06T06:52:52.843Z,36.70
2023-04-06T06:54:56.386Z,36.60
2023-04-06T06:56:59.228Z,36.60
2023-04-06T06:59:01.085Z,36.60
2023-04-06T07:01:02.933Z,37.20
2023-04-06T07:03:04.783Z,36.70
2023-04-06T07:05:23.828Z,36.60
2023-04-06T07:07:29.069Z,36.50
2023-04-06T07:09:30.801Z,36.50
2023-04-06T07:11:32.481Z,36.50
2023-04-06T07:13:34.158Z,36.50
2023-04-06T07:15:36.023Z,36.50
2023-04-06T07:17:37.809Z,36.50
2023-04-06T07:19:40.709Z,36.50
2023-04-06T07:21:42.571Z,36.50
2023-04-06T07:23:44.684Z,36.40
2023-04-06T07:25:46.567Z,36.40
2023-04-06T07:27:49.033Z,36.40
2023-04-06T07:29:50.825Z,36.40
2023-04-06T07:31:52.721Z,36.30
2023-04-06T07:33:54.404Z,36.30
2023-04-06T07:35:56.565Z,36.30
2023-04-06T07:37:58.684Z,36.30
2023-04-06T07:40:00.546Z,36.30
2023-04-06T07:42:02.365Z,36.20
2023-04-06T07:44:04.627Z,36.20
2023-04-06T07:46:06.433Z,36.20
2023-04-06T07:48:08.281Z,36.20
2023-04-06T07:50:11.031Z,36.20
2023-04-06T07:52:12.847Z,36.20
2023-04-06T07:54:14.545Z,36.10
2023-04-06T07:56:16.481Z,36.10
2023-04-06T07:58:18.242Z,36.00
2023-04-06T08:00:20.400Z,36.10
2023-04-06T08:02:22.237Z,36.00
2023-04-06T08:04:24.003Z,36.00
2023-04-06T08:06:25.985Z,36.00
2023-04-06T08:08:27.875Z,35.90
2023-04-06T08:10:29.619Z,35.90
2023-04-06T08:12:31.347Z,35.90
2023-04-06T08:14:33.078Z,35.90
2023-04-06T08:16:34.729Z,35.90
2023-04-06T08:18:36.414Z,35.90
2023-04-06T08:20:38.173Z,35.90
2023-04-06T08:22:39.862Z,35.80
2023-04-06T08:24:41.618Z,35.80
2023-04-06T08:26:43.302Z,35.80
2023-04-06T08:28:46.918Z,35.80
2023-04-06T08:30:49.105Z,35.80
2023-04-06T08:32:51.079Z,35.80
2023-04-06T08:34:55.999Z,35.80
2023-04-06T08:36:57.696Z,35.70
2023-04-06T08:39:00.808Z,35.70
2023-04-06T08:41:11.394Z,35.70
2023-04-06T08:43:15.135Z,35.60
2023-04-06T08:45:18.692Z,35.70
2023-04-06T08:47:23.960Z,35.60
2023-04-06T08:49:27.245Z,35.60
2023-04-06T08:51:31.013Z,35.60
2023-04-06T08:53:32.764Z,35.70
2023-04-06T08:55:35.245Z,35.60
2023-04-06T08:57:38.123Z,35.60
2023-04-06T08:59:40.483Z,35.50
2023-04-06T09:01:46.895Z,35.50
2023-04-06T09:03:50.565Z,35.50
2023-04-06T09:05:52.452Z,35.50
2023-04-06T09:07:54.342Z,35.40
2023-04-06T09:09:56.141Z,35.50
2023-04-06T09:12:04.391Z,35.40
2023-04-06T09:14:06.286Z,35.40
2023-04-06T09:16:08.153Z,35.40
2023-04-06T09:18:10.242Z,35.40
2023-04-06T09:20:13.097Z,35.30
2023-04-06T09:22:14.841Z,35.40
2023-04-06T09:24:19.127Z,35.40
2023-04-06T09:26:21.070Z,35.30
2023-04-06T09:28:22.798Z,35.30
2023-04-06T09:30:25.846Z,35.40
2023-04-06T09:32:27.617Z,35.30
2023-04-06T09:34:29.371Z,35.30
2023-04-06T09:36:36.020Z,35.30
2023-04-06T09:39:01.286Z,35.30
2023-04-06T09:41:02.940Z,35.30
2023-04-06T09:43:07.937Z,35.20
2023-04-06T09:45:10.186Z,35.40
2023-04-06T09:47:12.189Z,35.30
2023-04-06T09:49:14.978Z,35.40
2023-04-06T09:51:19.249Z,35.30
2023-04-06T09:53:22.313Z,35.30
2023-04-06T09:55:36.084Z,35.30
2023-04-06T09:57:47.038Z,35.30
2023-04-06T10:00:10.556Z,35.20
2023-04-06T10:02:35.113Z,35.20
2023-04-06T10:04:55.356Z,35.20
2023-04-06T10:06:59.867Z,35.20
2023-04-06T10:09:05.096Z,35.20
2023-04-06T10:11:07.197Z,35.20
2023-04-06T10:13:12.079Z,35.20
2023-04-06T10:15:13.881Z,35.20
2023-04-06T10:17:15.620Z,35.10
2023-04-06T10:19:24.056Z,35.20
2023-04-06T10:21:28.261Z,35.20
2023-04-06T10:23:46.328Z,35.20
2023-04-06T10:25:55.884Z,35.20
2023-04-06T10:28:08.260Z,35.20
2023-04-06T10:30:10.137Z,35.10
2023-04-06T10:32:12.019Z,35.20
2023-04-06T10:34:13.901Z,35.20
2023-04-06T10:36:24.225Z,35.20
2023-04-06T10:38:41.626Z,35.20
2023-04-06T10:40:44.054Z,35.10
2023-04-06T10:42:45.768Z,35.10
2023-04-06T10:44:50.964Z,35.10
2023-04-06T10:47:01.745Z,35.10
2023-04-06T10:49:13.480Z,35.10
2023-04-06T10:51:21.340Z,35.10
2023-04-06T10:53:25.023Z,35.00
2023-04-06T10:55:28.900Z,35.00
2023-04-06T10:57:32.921Z,35.00
2023-04-06T10:59:34.749Z,35.00
2023-04-06T11:01:36.775Z,35.00
2023-04-06T11:03:49.856Z,35.00
2023-04-06T11:05:52.465Z,35.00
2023-04-06T11:07:54.308Z,35.00
2023-04-06T11:10:11.607Z,34.90
2023-04-06T11:12:26.599Z,34.90
2023-04-06T11:14:28.353Z,34.80
2023-04-06T11:16:32.274Z,34.90
2023-04-06T11:18:34.151Z,34.90
2023-04-06T11:20:35.955Z,34.90
2023-04-06T11:22:37.715Z,34.80
2023-04-06T11:24:39.409Z,34.90
2023-04-06T11:26:49.458Z,34.80
2023-04-06T11:28:51.487Z,35.50
2023-04-06T11:30:54.087Z,34.80
2023-04-06T11:33:02.434Z,35.20
2023-04-06T11:35:04.267Z,34.80
2023-04-06T11:37:10.181Z,34.80
2023-04-06T11:39:13.270Z,34.80
2023-04-06T11:41:14.973Z,34.80
2023-04-06T11:43:16.737Z,34.70
2023-04-06T11:45:18.374Z,34.70
2023-04-06T11:47:21.476Z,34.70
2023-04-06T11:49:23.243Z,34.80
2023-04-06T11:51:25.179Z,34.70
2023-04-06T11:53:30.821Z,34.70
2023-04-06T11:55:39.377Z,34.70
2023-04-06T11:57:41.356Z,34.70
2023-04-06T11:59:43.417Z,34.70
2023-04-06T12:01:48.593Z,34.70
2023-04-06T12:03:52.175Z,34.70
2023-04-06T12:05:54.015Z,34.60
2023-04-06T12:07:56.113Z,34.60
2023-04-06T12:09:59.255Z,34.60
2023-04-06T12:12:01.509Z,34.60
2023-04-06T12:14:05.748Z,34.60
2023-04-06T12:16:07.496Z,34.70
2023-04-06T12:18:09.506Z,34.60
2023-04-06T12:20:24.723Z,34.60
2023-04-06T12:22:27.917Z,34.60
2023-04-06T12:24:30.049Z,34.60
2023-04-06T12:26:32.348Z,34.60
2023-04-06T12:28:34.089Z,34.60
2023-04-06T12:30:36.453Z,34.60
2023-04-06T12:32:38.141Z,34.60
2023-04-06T12:34:39.908Z,34.50
2023-04-06T12:36:41.763Z,34.60
2023-04-06T12:38:45.682Z,34.60
2023-04-06T12:40:47.382Z,34.50
2023-04-06T12:42:49.048Z,34.50
2023-04-06T12:44:50.798Z,34.50
2023-04-06T12:46:53.485Z,34.50
2023-04-06T12:48:56.109Z,34.50
2023-04-06T12:50:59.447Z,35.10
2023-04-06T12:53:01.307Z,34.40
2023-04-06T12:55:03.960Z,35.20
2023-04-06T12:57:06.011Z,34.50
2023-04-06T12:59:08.314Z,34.60
2023-04-06T13:01:10.490Z,34.60
2023-04-06T13:03:12.369Z,34.60
2023-04-06T13:05:19.398Z,35.30
2023-04-06T13:07:21.097Z,34.60
2023-04-06T13:09:23.113Z,34.60
2023-04-06T13:11:28.711Z,33.40
2023-04-06T13:13:31.670Z,33.00
2023-04-06T13:15:35.764Z,32.70
2023-04-06T13:17:37.515Z,32.70
2023-04-06T13:19:39.262Z,33.40
2023-04-06T13:21:40.986Z,33.80
2023-04-06T13:23:42.672Z,34.10
2023-04-06T13:25:44.393Z,34.90
2023-04-06T13:27:48.487Z,34.50
2023-04-06T13:29:50.389Z,34.70
2023-04-06T13:31:52.300Z,34.70
2023-04-06T13:33:54.073Z,34.80
2023-04-06T13:35:56.168Z,34.70
2023-04-06T13:37:57.837Z,34.80
2023-04-06T13:40:01.093Z,34.90
2023-04-06T13:42:04.095Z,34.50
2023-04-06T13:44:05.961Z,33.70
2023-04-06T13:46:07.659Z,33.50
2023-04-06T13:48:09.459Z,33.00
2023-04-06T13:50:11.487Z,32.70
2023-04-06T13:52:13.424Z,32.60
2023-04-06T13:54:15.199Z,32.80
2023-04-06T13:56:16.836Z,33.20
2023-04-06T13:58:18.497Z,33.40
2023-04-06T14:00:20.397Z,33.20
2023-04-06T14:02:28.229Z,33.20
2023-04-06T14:04:30.981Z,33.40
2023-04-06T14:06:32.657Z,32.70
2023-04-06T14:08:34.324Z,32.60
2023-04-06T14:10:41.113Z,33.00
2023-04-06T14:12:46.076Z,32.80
2023-04-06T14:14:47.790Z,32.30
2023-04-06T14:16:49.663Z,31.90
2023-04-06T14:18:52.065Z,31.90
2023-04-06T14:21:00.413Z,31.90
2023-04-06T14:23:02.732Z,31.70
2023-04-06T14:25:04.585Z,31.90
2023-04-06T14:27:06.297Z,31.90
2023-04-06T14:29:08.306Z,31.90
2023-04-06T14:31:15.950Z,32.00
2023-04-06T14:33:17.689Z,31.90
2023-04-06T14:35:19.362Z,31.80
2023-04-06T14:37:22.069Z,32.00
2023-04-06T14:39:23.770Z,32.10
2023-04-06T14:41:28.525Z,32.30
2023-04-06T14:43:30.713Z,32.10
2023-04-06T14:45:35.712Z,31.60
2023-04-06T14:47:37.341Z,31.70
2023-04-06T14:49:39.006Z,31.50
2023-04-06T14:51:41.364Z,31.40
2023-04-06T14:53:43.442Z,31.40
2023-04-06T14:55:45.328Z,31.60
2023-04-06T14:57:47.058Z,32.10
2023-04-06T14:59:48.921Z,32.70
2023-04-06T15:01:50.693Z,33.10
2023-04-06T15:03:52.412Z,33.20
2023-04-06T15:05:55.085Z,33.60
2023-04-06T15:07:56.774Z,33.80
2023-04-06T15:09:58.445Z,34.10
2023-04-06T15:12:01.238Z,34.20
2023-04-06T15:14:03.003Z,34.30
2023-04-06T15:16:05.991Z,34.30
2023-04-06T15:18:07.811Z,34.40
2023-04-06T15:20:09.936Z,34.60
2023-04-06T15:22:12.421Z,34.60
2023-04-06T15:24:14.070Z,34.60
2023-04-06T15:26:15.746Z,34.70
2023-04-06T15:28:17.397Z,34.80
2023-04-06T15:30:19.163Z,35.00
2023-04-06T15:32:21.166Z,35.20
2023-04-06T15:34:23.053Z,35.30
2023-04-06T15:36:27.183Z,32.90
2023-04-06T15:38:29.992Z,31.50
2023-04-06T15:40:31.895Z,32.40
2023-04-06T15:42:33.556Z,33.60
2023-04-06T15:44:35.437Z,34.00
2023-04-06T15:46:37.059Z,34.50
2023-04-06T15:48:38.853Z,34.50
2023-04-06T15:50:40.535Z,34.00
2023-04-06T15:52:42.386Z,34.50
2023-04-06T15:54:44.050Z,34.70
2023-04-06T15:56:46.149Z,34.70
2023-04-06T15:58:48.191Z,35.40
2023-04-06T16:00:49.971Z,34.80
2023-04-06T16:02:51.788Z,35.00
2023-04-06T16:04:57.909Z,35.00
2023-04-06T16:06:59.557Z,35.00
2023-04-06T16:09:01.858Z,35.10
2023-04-06T16:11:03.883Z,35.10
2023-04-06T16:13:05.928Z,35.20
2023-04-06T16:15:08.325Z,35.20
2023-04-06T16:17:10.107Z,35.10
2023-04-06T16:19:11.817Z,35.20
2023-04-06T16:21:19.692Z,35.30
2023-04-06T16:23:21.575Z,35.30
2023-04-06T16:25:23.175Z,35.40
2023-04-06T16:27:24.826Z,34.60
2023-04-06T16:29:31.748Z,35.10
2023-04-06T16:31:33.490Z,35.30
2023-04-06T16:33:35.286Z,35.40
2023-04-06T16:35:43.590Z,35.50
2023-04-06T16:37:46.516Z,35.70
2023-04-06T16:39:48.193Z,35.60
2023-04-06T16:41:50.015Z,35.60
2023-04-06T16:43:51.710Z,35.50
2023-04-06T16:45:53.536Z,35.50
2023-04-06T16:47:55.285Z,35.50
2023-04-06T16:50:05.787Z,35.50
2023-04-06T16:52:08.050Z,35.40
2023-04-06T16:54:09.666Z,35.60
2023-04-06T16:56:11.313Z,35.60
2023-04-06T16:58:13.034Z,35.50
2023-04-06T17:00:15.417Z,35.90
2023-04-06T17:02:17.124Z,35.90
2023-04-06T17:04:19.263Z,35.70
2023-04-06T17:06:21.003Z,35.60
2023-04-06T17:08:22.631Z,35.80
2023-04-06T17:10:33.097Z,35.80
2023-04-06T17:12:36.347Z,35.80
2023-04-06T17:14:38.091Z,35.90
2023-04-06T17:16:39.786Z,36.00
2023-04-06T17:18:41.432Z,36.20
2023-04-06T17:20:43.184Z,36.40
2023-04-06T17:22:49.319Z,36.60
2023-04-06T17:24:51.231Z,37.00
2023-04-06T17:26:52.893Z,37.20
2023-04-06T17:28:54.543Z,37.30
2023-04-06T17:30:57.055Z,37.10
2023-04-06T17:32:58.816Z,34.70
2023-04-06T17:35:00.596Z,35.40
2023-04-06T17:37:02.348Z,34.40
2023-04-06T17:39:04.063Z,35.10
2023-04-06T17:41:07.585Z,35.50
2023-04-06T17:43:09.281Z,36.30
2023-04-06T17:45:11.104Z,36.50
2023-04-06T17:47:12.756Z,36.60
2023-04-06T17:49:14.378Z,36.60
2023-04-06T17:51:18.906Z,36.60
2023-04-06T17:53:20.650Z,36.80
2023-04-06T17:55:22.975Z,36.50
2023-04-06T17:57:24.627Z,36.70
2023-04-06T17:59:26.353Z,37.10
2023-04-06T18:01:28.112Z,37.00
2023-04-06T18:03:29.888Z,37.00
2023-04-06T18:05:31.691Z,37.10
2023-04-06T18:07:33.396Z,36.90
2023-04-06T18:09:35.396Z,36.90
2023-04-06T18:11:37.026Z,37.30
2023-04-06T18:13:40.103Z,37.00
2023-04-06T18:15:42.176Z,37.20
2023-04-06T18:17:45.463Z,37.60
2023-04-06T18:19:47.553Z,37.70
2023-04-06T18:21:49.162Z,37.80
2023-04-06T18:23:50.895Z,38.00
2023-04-06T18:25:52.748Z,38.20
2023-04-06T18:27:54.448Z,38.30
2023-04-06T18:29:56.118Z,38.00
2023-04-06T18:31:57.808Z,38.20
2023-04-06T18:33:59.668Z,38.20
2023-04-06T18:36:01.442Z,38.20
2023-04-06T18:38:03.074Z,38.20
2023-04-06T18:40:05.628Z,38.20
2023-04-06T18:42:07.258Z,38.20
2023-04-06T18:44:08.992Z,38.30
2023-04-06T18:46:15.599Z,38.50
2023-04-06T18:48:17.344Z,38.70
2023-04-06T18:50:18.988Z,38.60
2023-04-06T18:52:20.756Z,38.60
2023-04-06T18:54:22.509Z,37.80
2023-04-06T18:56:24.225Z,36.70
2023-04-06T18:58:26.628Z,37.40
2023-04-06T19:00:28.360Z,38.10
2023-04-06T19:02:30.457Z,38.30
2023-04-06T19:04:32.440Z,38.30
2023-04-06T19:06:34.275Z,38.40
2023-04-06T19:08:36.079Z,38.50
2023-04-06T19:10:38.604Z,38.50
2023-04-06T19:12:40.264Z,38.50
2023-04-06T19:14:42.975Z,38.50
2023-04-06T19:16:52.067Z,38.50
2023-04-06T19:18:54.209Z,36.40
2023-04-06T19:20:56.026Z,36.50
2023-04-06T19:22:57.947Z,37.20
2023-04-06T19:24:59.639Z,37.80
2023-04-06T19:27:02.527Z,38.00
2023-04-06T19:29:04.286Z,38.20
2023-04-06T19:31:08.680Z,38.20
2023-04-06T19:33:10.553Z,38.20
2023-04-06T19:35:12.265Z,38.30
2023-04-06T19:37:14.036Z,38.30
2023-04-06T19:39:18.651Z,38.40
2023-04-06T19:41:21.573Z,38.00
2023-04-06T19:43:23.218Z,37.70
2023-04-06T19:45:24.889Z,38.00
2023-04-06T19:47:26.567Z,38.40
2023-04-06T19:49:28.488Z,38.40
2023-04-06T19:51:34.218Z,38.40
2023-04-06T19:53:36.629Z,38.40
2023-04-06T19:55:38.925Z,38.40
2023-04-06T19:57:41.035Z,38.40
2023-04-06T19:59:43.291Z,38.40
2023-04-06T20:01:46.347Z,38.40
2023-04-06T20:03:48.444Z,38.40
2023-04-06T20:05:50.259Z,38.50
2023-04-06T20:07:52.149Z,38.50
2023-04-06T20:09:53.917Z,38.40
2023-04-06T20:11:55.663Z,38.50
2023-04-06T20:13:57.286Z,38.50
2023-04-06T20:15:59.195Z,38.50
2023-04-06T20:18:00.855Z,38.60
2023-04-06T20:20:02.551Z,38.60
2023-04-06T20:22:04.952Z,38.60
2023-04-06T20:24:06.765Z,38.50
2023-04-06T20:26:10.217Z,38.60
2023-04-06T20:28:12.312Z,38.50
2023-04-06T20:30:15.230Z,38.60
2023-04-06T20:32:20.658Z,38.60
2023-04-06T20:34:25.913Z,38.60
2023-04-06T20:36:28.027Z,39.20
2023-04-06T20:38:33.562Z,38.60
2023-04-06T20:40:35.483Z,37.90
2023-04-06T20:42:37.381Z,38.00
2023-04-06T20:44:39.349Z,38.40
2023-04-06T20:46:41.169Z,38.60
2023-04-06T20:48:43.138Z,38.70
2023-04-06T20:50:44.814Z,38.80
2023-04-06T20:52:47.298Z,37.60
2023-04-06T20:54:50.626Z,37.30
2023-04-06T20:56:52.398Z,37.90
2023-04-06T20:58:54.117Z,38.70
2023-04-06T21:00:55.920Z,38.80
2023-04-06T21:02:57.869Z,38.70
2023-04-06T21:04:59.601Z,38.90
2023-04-06T21:07:04.552Z,39.00
2023-04-06T21:09:06.303Z,39.10
2023-04-06T21:11:08.110Z,39.00
2023-04-06T21:13:09.862Z,39.10
2023-04-06T21:15:11.752Z,39.20
2023-04-06T21:17:13.606Z,39.10
2023-04-06T21:19:15.226Z,39.20
2023-04-06T21:21:16.877Z,39.90
2023-04-06T21:23:18.564Z,39.30
2023-04-06T21:25:20.224Z,39.30
2023-04-06T21:27:22.194Z,39.30
2023-04-06T21:29:23.835Z,39.30
2023-04-06T21:31:25.659Z,39.40
2023-04-06T21:33:27.450Z,39.40
2023-04-06T21:35:29.121Z,39.50
2023-04-06T21:37:30.929Z,39.50
2023-04-06T21:39:32.542Z,39.40
2023-04-06T21:41:34.838Z,39.50
2023-04-06T21:43:36.748Z,39.50
2023-04-06T21:45:38.576Z,39.40
2023-04-06T21:47:40.269Z,39.50
2023-04-06T21:49:42.081Z,39.50
2023-04-06T21:51:43.733Z,39.60
2023-04-06T21:53:45.770Z,39.60
2023-04-06T21:55:47.815Z,39.60
2023-04-06T21:57:49.519Z,39.60
2023-04-06T21:59:51.180Z,39.70
2023-04-06T22:01:53.739Z,39.60
2023-04-06T22:03:57.358Z,39.70
2023-04-06T22:06:02.853Z,39.70
2023-04-06T22:08:04.761Z,39.80
2023-04-06T22:10:06.848Z,39.80
2023-04-06T22:12:08.677Z,39.80
2023-04-06T22:14:10.841Z,39.80
2023-04-06T22:16:12.632Z,39.90
2023-04-06T22:18:14.311Z,39.90
2023-04-06T22:20:16.058Z,39.90
2023-04-06T22:22:17.819Z,39.90
2023-04-06T22:24:19.922Z,39.90
2023-04-06T22:26:22.260Z,39.90
2023-04-06T22:28:25.072Z,39.90
2023-04-06T22:30:26.792Z,40.00
2023-04-06T22:32:28.559Z,40.00
2023-04-06T22:34:30.405Z,40.00
2023-04-06T22:36:32.197Z,40.00
2023-04-06T22:38:33.838Z,40.00
2023-04-06T22:40:35.499Z,40.00
2023-04-06T22:42:37.519Z,40.10
2023-04-06T22:44:39.228Z,40.10
2023-04-06T22:46:40.902Z,40.10
2023-04-06T22:48:42.542Z,40.10
2023-04-06T22:50:44.235Z,40.10
2023-04-06T22:52:46.358Z,40.10
2023-04-06T22:54:48.051Z,40.20
2023-04-06T22:56:50.264Z,40.10
2023-04-06T22:58:51.972Z,40.10
2023-04-06T23:00:53.589Z,40.20
2023-04-06T23:02:55.714Z,40.10
2023-04-06T23:04:57.577Z,40.20
2023-04-06T23:06:59.263Z,40.20
2023-04-06T23:09:00.937Z,40.20
2023-04-06T23:11:02.556Z,40.20
2023-04-06T23:13:04.201Z,40.20
2023-04-06T23:15:06.464Z,40.20
2023-04-06T23:17:09.475Z,40.90
2023-04-06T23:19:11.414Z,40.30
2023-04-06T23:21:13.019Z,40.20
2023-04-06T23:23:14.651Z,40.20
2023-04-06T23:25:16.436Z,40.20
2023-04-06T23:27:18.085Z,40.10
2023-04-06T23:29:19.735Z,40.20
2023-04-06T23:31:21.423Z,40.10
2023-04-06T23:33:23.150Z,40.80
2023-04-06T23:35:24.818Z,40.20
2023-04-06T23:37:27.179Z,40.20
2023-04-06T23:39:29.720Z,40.20
2023-04-06T23:41:31.612Z,40.20
2023-04-06T23:43:33.257Z,40.20
2023-04-06T23:45:35.022Z,40.20
2023-04-06T23:47:36.727Z,40.20
2023-04-06T23:49:38.624Z,40.20
2023-04-06T23:51:40.344Z,40.20
2023-04-06T23:53:42.165Z,40.20
2023-04-06T23:55:43.889Z,40.20
2023-04-06T23:57:45.629Z,40.20
2023-04-06T23:59:47.306Z,40.20
